Time;durP1;ratioP1;P1;durP2;ratioP2;P2;SDS_P1;SDS_P2;PMS_P1;PMS_P2;Temp;Humidity;BMP_temperature;BMP_pressure;BME280_temperature;BME280_humidity;BME280_pressure;Samples;Min_cycle;Max_cycle;Signal;HPM_P1;HPM_P2
2024/01/14 00:02:18;;;;;;;1.20;0.73;;;6.80;41.30;;;;;;5092147;28;20442;-48
2024/01/14 00:04:44;;;;;;;0.90;0.52;;;6.80;41.10;;;;;;5092098;28;20259;-49
2024/01/14 00:07:10;;;;;;;1.77;0.85;;;6.80;41.80;;;;;;5092251;28;20256;-47
2024/01/14 00:09:36;;;;;;;1.70;1.60;;;6.80;41.00;;;;;;5092203;28;20187;-44
2024/01/14 00:12:03;;;;;;;1.33;0.95;;;6.70;41.40;;;;;;5096196;28;20523;-42
2024/01/14 00:14:28;;;;;;;1.75;0.93;;;6.60;41.20;;;;;;5096226;28;20259;-47
2024/01/14 00:16:54;;;;;;;1.67;1.40;;;6.70;41.30;;;;;;5096258;28;20591;-43
2024/01/14 00:19:20;;;;;;;1.30;1.10;;;6.60;41.40;;;;;;5095942;28;20178;-48
2024/01/14 00:21:46;;;;;;;1.67;0.70;;;6.60;41.60;;;;;;5095950;28;20440;-49
2024/01/14 00:24:11;;;;;;;1.00;0.67;;;6.60;41.70;;;;;;5096125;28;20172;-45
2024/01/14 00:26:37;;;;;;;1.23;1.03;;;6.70;41.70;;;;;;5095950;28;20696;-43
2024/01/14 00:29:03;;;;;;;5.03;2.13;;;6.70;41.70;;;;;;5095984;28;20187;-48
2024/01/14 00:31:29;;;;;;;6.83;1.17;;;6.50;41.70;;;;;;5095736;28;20200;-48
2024/01/14 00:33:55;;;;;;;2.07;1.67;;;6.50;42.00;;;;;;5095667;28;20416;-44
2024/01/14 00:36:20;;;;;;;1.30;0.80;;;6.50;42.20;;;;;;5095694;28;20179;-44
2024/01/14 00:38:46;;;;;;;2.23;1.23;;;6.40;42.20;;;;;;5095897;28;20183;-49
2024/01/14 00:41:12;;;;;;;1.30;0.70;;;6.40;42.20;;;;;;5095324;28;20563;-49
2024/01/14 00:43:38;;;;;;;1.20;1.10;;;6.40;42.30;;;;;;5095544;28;20208;-45
2024/01/14 00:46:04;;;;;;;0.80;0.40;;;6.50;42.00;;;;;;5095648;28;20237;-42
2024/01/14 00:48:30;;;;;;;0.80;0.40;;;6.50;42.00;;;;;;5095457;28;20403;-47
2024/01/14 00:50:56;;;;;;;1.35;0.80;;;6.50;42.00;;;;;;5095248;28;20966;-49
2024/01/14 00:53:22;;;;;;;1.48;0.82;;;6.50;42.00;;;;;;5095804;28;20199;-45
2024/01/14 00:55:49;;;;;;;1.48;0.60;;;6.50;41.90;;;;;;5095531;28;20225;-45
2024/01/14 00:58:14;;;;;;;2.17;1.13;;;6.50;41.90;;;;;;5095435;28;20180;-47
2024/01/14 01:00:40;;;;;;;1.00;0.80;;;6.40;42.10;;;;;;5095116;28;20754;-47
2024/01/14 01:03:06;;;;;;;1.40;1.17;;;6.40;42.30;;;;;;5095081;28;20573;-43
2024/01/14 01:05:32;;;;;;;1.40;1.03;;;6.30;42.50;;;;;;5095239;28;20835;-46
2024/01/14 01:07:57;;;;;;;1.00;0.67;;;6.40;42.20;;;;;;5095367;28;20168;-43
2024/01/14 01:10:23;;;;;;;2.50;1.07;;;6.30;42.60;;;;;;5094801;28;20692;-45
2024/01/14 01:12:49;;;;;;;1.30;0.70;;;6.30;42.60;;;;;;5095221;28;20204;-47
2024/01/14 01:15:15;;;;;;;1.77;1.53;;;6.30;42.80;;;;;;5095096;28;20411;-43
2024/01/14 01:17:40;;;;;;;1.03;0.83;;;6.20;42.90;;;;;;5094884;28;20172;-45
2024/01/14 01:20:10;;;;;;;0.90;0.33;;;6.10;43.20;;;;;;5094792;28;20627;-47
2024/01/14 01:22:35;;;;;;;1.00;0.70;;;6.20;43.10;;;;;;5093696;28;20192;-43
2024/01/14 01:25:01;;;;;;;0.90;0.40;;;6.30;42.70;;;;;;5094972;28;20221;-44
2024/01/14 01:27:29;;;;;;;1.87;1.73;;;6.40;42.50;;;;;;5094934;28;20429;-48
2024/01/14 01:29:55;;;;;;;1.63;1.13;;;6.30;42.60;;;;;;5094592;28;20431;-49
2024/01/14 01:32:21;;;;;;;2.00;1.10;;;6.30;42.90;;;;;;5095225;28;20180;-44
2024/01/14 01:34:47;;;;;;;1.53;1.23;;;6.30;42.90;;;;;;5095126;28;20172;-47
2024/01/14 01:37:14;;;;;;;1.30;0.63;;;6.30;42.80;;;;;;5094983;28;20906;-46
2024/01/14 01:39:40;;;;;;;1.52;0.82;;;6.20;42.80;;;;;;5094321;28;20196;-43
2024/01/14 01:42:06;;;;;;;0.90;0.70;;;6.30;42.70;;;;;;5094517;28;20283;-49
2024/01/14 01:44:33;;;;;;;1.00;0.67;;;6.40;42.30;;;;;;5094376;28;20407;-44
2024/01/14 01:47:00;;;;;;;1.80;1.20;;;6.30;42.50;;;;;;5094410;28;20456;-44
2024/01/14 01:49:27;;;;;;;0.80;0.30;;;6.30;42.80;;;;;;5094430;28;20279;-45
2024/01/14 01:51:54;;;;;;;1.33;0.82;;;6.40;42.40;;;;;;5094283;28;20271;-45
2024/01/14 01:54:27;;;;;;;1.02;0.82;;;6.50;42.20;;;;;;5094244;28;20672;-44
2024/01/14 01:56:54;;;;;;;2.63;0.95;;;6.60;41.80;;;;;;5094370;28;20560;-50
2024/01/14 01:59:21;;;;;;;0.80;0.30;;;6.60;41.60;;;;;;5094049;28;20164;-50
2024/01/14 02:01:48;;;;;;;1.48;1.38;;;6.60;41.70;;;;;;5094120;28;20196;-44
2024/01/14 02:04:15;;;;;;;1.50;1.20;;;6.70;41.50;;;;;;5094162;28;20234;-44
2024/01/14 02:06:41;;;;;;;1.25;1.15;;;6.70;41.40;;;;;;5094220;28;20709;-46
2024/01/14 02:09:10;;;;;;;1.17;0.88;;;6.70;41.40;;;;;;5094008;28;20659;-44
2024/01/14 02:11:37;;;;;;;1.80;1.05;;;6.60;41.50;;;;;;5093610;28;20196;-48
2024/01/14 02:14:03;;;;;;;0.95;0.35;;;6.60;41.60;;;;;;5093976;28;20180;-46
2024/01/14 02:16:30;;;;;;;2.70;2.50;;;6.70;41.60;;;;;;5093909;28;20168;-43
2024/01/14 02:18:55;;;;;;;1.35;1.25;;;6.70;41.20;;;;;;5093728;28;20184;-45
2024/01/14 02:21:25;;;;;;;1.60;0.83;;;6.60;41.20;;;;;;5093489;28;20233;-44
2024/01/14 02:24:19;;;;;;;0.90;0.50;;;6.60;41.50;;;;;;5093586;28;20208;-42
2024/01/14 02:26:45;;;;;;;1.20;0.98;;;6.40;41.80;;;;;;5093716;28;20175;-45
2024/01/14 02:29:13;;;;;;;2.40;1.40;;;6.20;42.50;;;;;;5093749;28;20197;-45
2024/01/14 02:31:39;;;;;;;1.98;0.85;;;6.20;42.70;;;;;;5093212;28;20430;-41
2024/01/14 02:34:06;;;;;;;1.90;1.30;;;6.20;42.60;;;;;;5093285;28;20181;-45
2024/01/14 02:36:33;;;;;;;1.30;1.05;;;6.00;42.90;;;;;;5093506;28;20434;-49
2024/01/14 02:38:59;;;;;;;1.10;0.85;;;6.10;42.90;;;;;;5093487;28;20184;-41
2024/01/14 02:41:24;;;;;;;3.17;0.57;;;6.20;42.80;;;;;;5093043;28;20215;-48
2024/01/14 02:43:50;;;;;;;1.67;1.03;;;6.30;42.40;;;;;;5093357;28;20458;-49
2024/01/14 02:46:16;;;;;;;1.67;1.57;;;6.30;42.30;;;;;;5093431;28;20225;-44
2024/01/14 02:48:42;;;;;;;1.97;1.43;;;6.30;42.40;;;;;;5093258;28;20614;-42
2024/01/14 02:51:08;;;;;;;0.90;0.50;;;6.20;42.40;;;;;;5092958;28;20275;-46
2024/01/14 02:53:33;;;;;;;2.97;0.67;;;6.10;43.10;;;;;;5092997;28;20398;-43
2024/01/14 02:55:59;;;;;;;0.80;0.30;;;6.20;43.00;;;;;;5093351;28;20957;-49
2024/01/14 02:58:25;;;;;;;0.90;0.40;;;6.30;42.70;;;;;;5093258;28;20176;-47
2024/01/14 03:00:50;;;;;;;1.07;0.80;;;6.20;43.40;;;;;;5092826;28;20760;-44
2024/01/14 03:03:16;;;;;;;1.00;0.63;;;6.20;43.60;;;;;;5091709;28;20196;-45
2024/01/14 03:05:42;;;;;;;1.00;0.70;;;6.30;43.60;;;;;;5092932;28;20179;-50
2024/01/14 03:08:08;;;;;;;1.97;0.80;;;6.20;44.30;;;;;;5092786;28;20484;-48
2024/01/14 03:10:34;;;;;;;1.23;0.80;;;6.20;45.00;;;;;;5092727;28;20426;-44
2024/01/14 03:13:00;;;;;;;0.80;0.30;;;5.90;45.90;;;;;;5092858;28;20646;-43
2024/01/14 03:15:26;;;;;;;0.90;0.50;;;6.00;45.40;;;;;;5093006;28;21092;-48
2024/01/14 03:17:52;;;;;;;1.47;0.87;;;6.10;45.40;;;;;;5092887;28;20180;-49
2024/01/14 03:20:18;;;;;;;0.90;0.40;;;6.20;45.10;;;;;;5092487;28;20750;-43
2024/01/14 03:22:44;;;;;;;0.90;0.40;;;6.10;45.30;;;;;;5093017;28;20235;-49
2024/01/14 03:25:09;;;;;;;0.90;0.60;;;6.10;45.30;;;;;;5092582;28;20176;-43
2024/01/14 03:27:35;;;;;;;1.20;0.50;;;6.20;45.00;;;;;;5092972;28;20172;-45
2024/01/14 03:30:02;;;;;;;5.73;0.70;;;6.20;45.00;;;;;;5092414;28;20184;-49
2024/01/14 03:32:28;;;;;;;0.80;0.30;;;6.20;45.20;;;;;;5091151;28;20429;-48
2024/01/14 03:34:53;;;;;;;2.60;1.50;;;6.30;45.10;;;;;;5092501;28;20169;-44
2024/01/14 03:37:19;;;;;;;5.50;0.93;;;6.20;45.00;;;;;;5092469;28;20565;-45
2024/01/14 03:39:45;;;;;;;0.80;0.40;;;6.10;45.00;;;;;;5092260;28;20195;-47
2024/01/14 03:42:10;;;;;;;4.80;1.50;;;6.00;45.60;;;;;;5092306;28;20203;-43
2024/01/14 03:44:36;;;;;;;1.20;0.60;;;6.00;45.40;;;;;;5091783;28;20176;-42
2024/01/14 03:47:02;;;;;;;5.13;0.90;;;6.10;45.40;;;;;;5092264;28;20585;-44
2024/01/14 03:49:29;;;;;;;1.00;0.73;;;6.10;44.90;;;;;;5092037;28;20178;-47
2024/01/14 03:51:54;;;;;;;1.38;1.27;;;6.20;44.50;;;;;;5092127;28;20220;-44
2024/01/14 03:54:20;;;;;;;1.37;1.27;;;5.20;43.90;;;;;;5092348;28;20172;-44
2024/01/14 03:56:46;;;;;;;1.13;0.90;;;6.20;45.10;;;;;;5092276;28;20186;-44
2024/01/14 03:59:11;;;;;;;2.27;1.30;;;6.20;44.50;;;;;;5092259;28;20175;-45
2024/01/14 04:01:37;;;;;;;1.83;0.60;;;6.20;44.40;;;;;;5091810;28;20253;-43
2024/01/14 04:04:03;;;;;;;0.90;0.47;;;6.30;44.30;;;;;;5091940;28;20464;-48
2024/01/14 04:06:29;;;;;;;8.03;0.97;;;6.20;44.50;;;;;;5091975;28;20965;-47
2024/01/14 04:08:55;;;;;;;2.03;1.23;;;6.20;44.70;;;;;;5092303;28;21101;-44
2024/01/14 04:11:20;;;;;;;1.10;0.80;;;6.10;44.70;;;;;;5092041;28;20207;-43
2024/01/14 04:13:46;;;;;;;1.63;0.60;;;6.10;44.70;;;;;;5091967;28;20669;-47
2024/01/14 04:16:12;;;;;;;3.73;0.80;;;6.20;44.50;;;;;;5091941;28;20225;-43
2024/01/14 04:18:37;;;;;;;2.20;0.93;;;6.30;44.30;;;;;;5091955;28;20177;-51
2024/01/14 04:21:03;;;;;;;0.90;0.50;;;6.30;44.50;;;;;;5091709;28;20681;-44
2024/01/14 04:23:29;;;;;;;0.90;0.63;;;6.30;44.50;;;;;;5091870;28;20208;-42
2024/01/14 04:25:55;;;;;;;1.63;0.50;;;6.30;44.40;;;;;;5092050;28;20409;-48
2024/01/14 04:28:21;;;;;;;2.33;1.65;;;6.20;44.90;;;;;;5091930;28;20180;-48
2024/01/14 04:30:47;;;;;;;1.10;1.00;;;6.30;44.90;;;;;;5091586;28;20189;-41
2024/01/14 04:33:13;;;;;;;1.83;1.60;;;6.30;45.30;;;;;;5091679;28;20194;-43
2024/01/14 04:35:38;;;;;;;1.13;0.97;;;6.30;45.40;;;;;;5091818;28;20175;-47
2024/01/14 04:38:04;;;;;;;1.73;1.00;;;6.30;45.60;;;;;;5092140;28;20677;-43
2024/01/14 04:40:30;;;;;;;0.90;0.57;;;6.30;45.60;;;;;;5091490;28;20979;-46
2024/01/14 04:42:56;;;;;;;1.00;0.57;;;6.20;45.60;;;;;;5091610;28;20195;-45
2024/01/14 04:45:21;;;;;;;0.80;0.20;;;6.20;45.40;;;;;;5091760;28;20183;-44
2024/01/14 04:47:47;;;;;;;0.90;0.43;;;6.30;45.10;;;;;;5091673;28;20172;-49
2024/01/14 04:50:13;;;;;;;1.03;0.93;;;6.40;44.90;;;;;;5091425;28;20747;-44
2024/01/14 04:52:38;;;;;;;0.90;0.50;;;6.50;44.70;;;;;;5091678;28;20576;-44
2024/01/14 04:55:04;;;;;;;3.70;1.03;;;6.50;44.50;;;;;;5091578;28;20769;-47
2024/01/14 04:57:30;;;;;;;2.78;0.47;;;6.50;44.30;;;;;;5094792;28;20558;-49
2024/01/14 04:59:56;;;;;;;2.73;1.30;;;6.60;44.10;;;;;;5095077;28;20192;-45
2024/01/14 05:02:22;;;;;;;0.90;0.60;;;6.60;43.90;;;;;;5095204;28;20207;-42
2024/01/14 05:04:47;;;;;;;0.90;0.60;;;6.60;44.00;;;;;;5095165;28;20210;-46
2024/01/14 05:07:13;;;;;;;1.03;0.70;;;6.60;44.00;;;;;;5095266;28;20576;-49
2024/01/14 05:09:39;;;;;;;1.63;1.53;;;6.60;43.80;;;;;;5095122;28;20196;-43
2024/01/14 05:12:05;;;;;;;2.60;1.90;;;6.60;43.60;;;;;;5095092;28;20541;-43
2024/01/14 05:14:31;;;;;;;1.10;0.95;;;6.60;43.60;;;;;;5095056;28;20195;-49
2024/01/14 05:16:56;;;;;;;6.03;2.10;;;6.60;43.60;;;;;;5095047;28;20533;-48
2024/01/14 05:19:22;;;;;;;1.07;0.70;;;6.60;43.50;;;;;;5094802;28;20176;-46
2024/01/14 05:21:50;;;;;;;1.00;0.77;;;6.60;43.40;;;;;;5094685;28;20181;-44
2024/01/14 05:24:16;;;;;;;4.15;1.67;;;6.60;43.40;;;;;;5094904;28;20169;-48
2024/01/14 05:26:42;;;;;;;1.00;0.40;;;6.60;43.40;;;;;;5094859;28;20246;-45
2024/01/14 05:29:08;;;;;;;1.20;1.00;;;6.60;43.20;;;;;;5094829;28;20171;-42
2024/01/14 05:31:33;;;;;;;0.93;0.57;;;6.50;43.90;;;;;;5094532;28;20278;-43
2024/01/14 05:33:59;;;;;;;6.23;1.60;;;6.40;44.20;;;;;;5094637;28;20177;-45
2024/01/14 05:36:25;;;;;;;4.73;1.30;;;6.40;44.50;;;;;;5094903;28;20251;-44
2024/01/14 05:38:50;;;;;;;1.10;0.77;;;6.30;45.30;;;;;;5094704;28;20168;-46
2024/01/14 05:41:16;;;;;;;1.93;1.73;;;6.30;45.50;;;;;;5094471;28;20298;-48
2024/01/14 05:43:42;;;;;;;1.93;1.27;;;6.30;45.00;;;;;;5094654;28;20200;-45
2024/01/14 05:46:07;;;;;;;1.03;0.87;;;6.40;45.10;;;;;;5094871;28;20588;-43
2024/01/14 05:48:34;;;;;;;1.83;1.60;;;6.40;45.10;;;;;;5095004;28;20642;-45
2024/01/14 05:50:59;;;;;;;1.00;0.82;;;6.40;45.10;;;;;;5094297;28;20192;-47
2024/01/14 05:53:25;;;;;;;2.03;1.63;;;6.40;45.80;;;;;;5094293;28;20661;-43
2024/01/14 05:55:51;;;;;;;2.70;1.73;;;6.20;46.20;;;;;;5094479;28;20211;-46
2024/01/14 05:58:16;;;;;;;2.67;1.20;;;6.20;45.80;;;;;;5094302;28;20172;-45
2024/01/14 06:00:42;;;;;;;1.47;1.23;;;6.20;46.10;;;;;;5093920;28;20193;-43
2024/01/14 06:03:08;;;;;;;1.80;1.27;;;6.20;46.00;;;;;;5094018;28;20306;-43
2024/01/14 06:05:34;;;;;;;1.00;0.83;;;6.30;45.90;;;;;;5094065;28;20222;-44
2024/01/14 06:07:59;;;;;;;1.70;1.50;;;6.30;45.90;;;;;;5093499;28;20161;-50
2024/01/14 06:10:26;;;;;;;0.80;0.30;;;6.30;45.60;;;;;;5093900;28;20191;-46
2024/01/14 06:12:51;;;;;;;1.52;0.95;;;6.30;45.80;;;;;;5094067;28;20225;-44
2024/01/14 06:15:17;;;;;;;12.77;3.80;;;6.30;45.70;;;;;;5093878;28;20184;-46
2024/01/14 06:17:43;;;;;;;2.13;1.33;;;6.40;45.70;;;;;;5093842;28;20180;-43
2024/01/14 06:20:09;;;;;;;0.80;0.30;;;6.40;45.40;;;;;;5093859;28;20192;-46
2024/01/14 06:22:35;;;;;;;0.80;0.32;;;6.40;45.70;;;;;;5093695;28;20488;-43
2024/01/14 06:25:01;;;;;;;0.90;0.60;;;6.30;45.90;;;;;;5093801;28;20169;-42
2024/01/14 06:27:26;;;;;;;1.33;1.23;;;6.20;46.00;;;;;;5093777;28;20241;-48
2024/01/14 06:29:52;;;;;;;0.90;0.50;;;6.30;45.90;;;;;;5093400;28;20723;-42
2024/01/14 06:32:18;;;;;;;1.93;1.47;;;6.40;45.80;;;;;;5093485;28;20438;-46
2024/01/14 06:34:44;;;;;;;0.90;0.53;;;6.40;45.50;;;;;;5093476;28;20216;-46
2024/01/14 06:37:10;;;;;;;1.83;1.73;;;6.50;45.50;;;;;;5093635;28;20180;-45
2024/01/14 06:39:35;;;;;;;1.57;0.60;;;6.40;45.40;;;;;;5093082;28;20904;-43
2024/01/14 06:42:01;;;;;;;0.90;0.53;;;6.50;45.40;;;;;;5093353;28;20430;-47
2024/01/14 06:44:27;;;;;;;1.30;1.20;;;6.50;45.40;;;;;;5093300;28;20526;-45
2024/01/14 06:46:52;;;;;;;1.00;0.73;;;6.50;45.50;;;;;;5093550;28;20176;-42
2024/01/14 06:49:18;;;;;;;1.23;0.97;;;6.40;45.50;;;;;;5093406;28;20168;-48
2024/01/14 06:51:45;;;;;;;0.80;0.30;;;6.40;45.60;;;;;;5093241;28;20684;-43
2024/01/14 06:54:11;;;;;;;1.23;0.55;;;6.30;45.90;;;;;;5093340;28;20528;-44
2024/01/14 06:56:47;;;;;;;1.93;1.30;;;6.30;45.90;;;;;;5091950;28;20183;-48
2024/01/14 06:59:23;;;;;;;1.25;0.88;;;6.40;45.70;;;;;;5092935;28;20509;-44
2024/01/14 07:01:49;;;;;;;1.00;0.85;;;6.50;45.50;;;;;;5093050;28;20176;-45
2024/01/14 07:04:15;;;;;;;1.00;0.60;;;6.50;45.40;;;;;;5093243;28;20165;-44
2024/01/14 07:06:41;;;;;;;2.17;0.77;;;6.50;45.30;;;;;;5093212;28;20169;-42
2024/01/14 07:09:11;;;;;;;2.80;1.87;;;6.50;45.20;;;;;;5093272;28;20672;-44
2024/01/14 07:11:37;;;;;;;0.90;0.60;;;6.60;45.00;;;;;;5092583;28;20422;-47
2024/01/14 07:14:03;;;;;;;4.50;1.27;;;6.50;45.20;;;;;;5092883;28;20195;-44
2024/01/14 07:16:29;;;;;;;0.80;0.40;;;6.40;45.30;;;;;;5093035;28;20803;-50
2024/01/14 07:18:55;;;;;;;2.05;1.15;;;6.50;45.40;;;;;;5092624;28;20169;-48
2024/01/14 07:21:23;;;;;;;5.83;2.40;;;6.40;45.40;;;;;;5092015;28;20196;-45
2024/01/14 07:23:49;;;;;;;2.15;1.65;;;6.40;45.70;;;;;;5092631;28;20238;-46
2024/01/14 07:26:17;;;;;;;0.80;0.30;;;6.40;45.90;;;;;;5092657;28;20234;-43
2024/01/14 07:28:43;;;;;;;2.95;1.85;;;6.20;46.70;;;;;;5092821;28;20179;-52
2024/01/14 07:31:10;;;;;;;1.02;0.77;;;6.10;47.00;;;;;;5092298;28;20555;-49
2024/01/14 07:33:36;;;;;;;1.20;1.10;;;6.10;46.70;;;;;;5092611;28;20177;-42
2024/01/14 07:36:02;;;;;;;2.07;0.93;;;6.20;46.50;;;;;;5092591;28;20242;-42
2024/01/14 07:38:27;;;;;;;2.10;1.70;;;6.30;46.60;;;;;;5092466;28;20433;-50
2024/01/14 07:40:53;;;;;;;0.90;0.50;;;6.30;46.60;;;;;;5091859;28;20216;-44
2024/01/14 07:43:19;;;;;;;2.00;1.27;;;6.30;46.40;;;;;;5092454;28;20207;-43
2024/01/14 07:45:44;;;;;;;1.87;1.10;;;6.20;46.70;;;;;;5092534;28;20195;-49
2024/01/14 07:48:10;;;;;;;0.80;0.40;;;6.20;46.80;;;;;;5092378;28;20176;-43
2024/01/14 07:50:36;;;;;;;1.30;1.17;;;6.20;46.60;;;;;;5092071;28;20188;-44
2024/01/14 07:53:02;;;;;;;1.27;1.17;;;6.30;46.50;;;;;;5092156;28;20651;-47
2024/01/14 07:55:27;;;;;;;1.65;1.48;;;6.40;46.30;;;;;;5092008;28;20193;-44
2024/01/14 07:57:53;;;;;;;1.20;0.50;;;6.30;46.60;;;;;;5092390;28;20187;-43
2024/01/14 08:00:19;;;;;;;1.37;0.67;;;6.20;46.60;;;;;;5092077;28;20554;-44
2024/01/14 08:02:45;;;;;;;1.30;1.20;;;6.30;46.50;;;;;;5091995;28;20708;-52
2024/01/14 08:05:11;;;;;;;2.30;0.77;;;6.40;46.40;;;;;;5092185;28;20177;-44
2024/01/14 08:07:37;;;;;;;1.00;0.77;;;6.30;46.60;;;;;;5092097;28;20176;-43
2024/01/14 08:10:02;;;;;;;1.80;1.63;;;6.40;46.30;;;;;;5091720;28;20706;-50
2024/01/14 08:12:28;;;;;;;3.10;2.80;;;6.40;46.60;;;;;;5092285;28;20654;-43
2024/01/14 08:14:54;;;;;;;0.90;0.63;;;6.20;46.90;;;;;;5091979;28;20931;-45
2024/01/14 08:17:20;;;;;;;0.90;0.50;;;6.20;47.20;;;;;;5091961;28;20194;-48
2024/01/14 08:19:46;;;;;;;1.53;1.07;;;6.10;47.20;;;;;;5091854;28;20730;-43
2024/01/14 08:22:15;;;;;;;1.20;0.63;;;6.20;47.20;;;;;;5091822;28;22127;-47
2024/01/14 08:24:41;;;;;;;5.32;2.40;;;6.30;47.10;;;;;;5091718;28;20208;-46
2024/01/14 08:27:08;;;;;;;4.28;1.42;;;6.30;47.30;;;;;;5091965;28;20257;-51
2024/01/14 08:29:34;;;;;;;1.25;0.80;;;6.10;48.00;;;;;;5091863;28;20264;-43
2024/01/14 08:31:59;;;;;;;1.47;0.87;;;6.20;47.90;;;;;;5094397;28;20585;-49
2024/01/14 08:34:26;;;;;;;0.80;0.37;;;6.20;48.00;;;;;;5095988;28;20171;-42
2024/01/14 08:36:51;;;;;;;0.80;0.43;;;6.20;48.10;;;;;;5095921;28;20536;-46
2024/01/14 08:39:17;;;;;;;4.10;1.90;;;6.30;47.70;;;;;;5095690;28;20191;-42
2024/01/14 08:41:44;;;;;;;2.40;1.17;;;6.40;47.30;;;;;;5095556;28;20235;-45
2024/01/14 08:44:10;;;;;;;1.65;0.98;;;6.50;47.20;;;;;;5095742;28;20215;-52
2024/01/14 08:46:40;;;;;;;2.60;0.77;;;6.60;46.80;;;;;;5095817;28;20592;-44
2024/01/14 08:49:07;;;;;;;1.48;1.20;;;6.60;46.50;;;;;;5095615;28;20183;-49
2024/01/14 08:51:33;;;;;;;1.63;1.52;;;6.60;46.50;;;;;;5095340;28;20298;-46
2024/01/14 08:54:00;;;;;;;0.87;0.50;;;6.60;46.50;;;;;;5095412;28;20705;-48
2024/01/14 08:56:28;;;;;;;1.33;0.60;;;6.60;46.60;;;;;;5095702;28;20534;-43
2024/01/14 08:58:56;;;;;;;1.33;0.57;;;6.60;46.40;;;;;;5095551;28;20184;-44
2024/01/14 09:01:22;;;;;;;2.40;0.68;;;6.60;46.30;;;;;;5095218;28;20219;-45
2024/01/14 09:03:48;;;;;;;1.55;1.40;;;6.70;46.30;;;;;;5095218;28;20236;-47
2024/01/14 09:06:13;;;;;;;0.80;0.30;;;6.80;46.00;;;;;;5095199;28;20173;-42
2024/01/14 09:08:39;;;;;;;1.00;0.70;;;6.80;45.60;;;;;;5095189;28;20165;-48
2024/01/14 09:11:05;;;;;;;1.40;0.87;;;6.70;46.00;;;;;;5095134;28;20188;-42
2024/01/14 09:13:30;;;;;;;1.40;1.03;;;6.70;45.60;;;;;;5095199;28;20176;-44
2024/01/14 09:15:56;;;;;;;2.20;1.27;;;6.60;45.90;;;;;;5095076;28;20534;-48
2024/01/14 09:18:22;;;;;;;1.63;1.33;;;6.60;45.90;;;;;;5095073;28;20164;-45
2024/01/14 09:20:48;;;;;;;7.50;3.43;;;6.60;45.80;;;;;;5094648;28;20279;-46
2024/01/14 09:23:13;;;;;;;1.73;0.60;;;6.60;45.50;;;;;;5095092;28;20291;-42
2024/01/14 09:25:39;;;;;;;0.83;0.37;;;6.50;45.90;;;;;;5095222;28;20169;-43
2024/01/14 09:28:05;;;;;;;1.57;0.73;;;6.30;46.80;;;;;;5094891;28;20175;-51
2024/01/14 09:30:31;;;;;;;3.80;0.93;;;6.20;46.80;;;;;;5094485;28;20442;-48
2024/01/14 09:32:56;;;;;;;0.90;0.50;;;6.40;46.90;;;;;;5094830;28;20410;-43
2024/01/14 09:35:22;;;;;;;0.97;0.70;;;6.30;47.10;;;;;;5094610;28;20654;-44
2024/01/14 09:37:48;;;;;;;1.00;0.47;;;6.30;47.40;;;;;;5094629;28;20195;-43
2024/01/14 09:40:16;;;;;;;0.90;0.30;;;6.30;47.40;;;;;;5094219;28;20456;-49
2024/01/14 09:42:46;;;;;;;4.00;1.45;;;6.40;47.10;;;;;;5093592;28;20204;-45
2024/01/14 09:45:13;;;;;;;0.80;0.30;;;6.40;46.80;;;;;;5094997;28;20176;-42
2024/01/14 09:47:42;;;;;;;1.42;1.30;;;6.40;46.80;;;;;;5094732;28;20293;-47
2024/01/14 09:50:09;;;;;;;0.95;0.70;;;6.30;47.00;;;;;;5094453;28;20190;-48
2024/01/14 09:52:39;;;;;;;3.40;1.10;;;6.40;46.80;;;;;;5094356;28;20669;-45
2024/01/14 09:55:06;;;;;;;3.63;2.05;;;6.30;46.50;;;;;;5094233;28;20185;-44
2024/01/14 09:57:34;;;;;;;1.33;0.77;;;6.20;46.60;;;;;;5094246;28;20176;-49
2024/01/14 10:00:05;;;;;;;3.55;1.40;;;6.40;46.60;;;;;;5094102;28;20554;-48
2024/01/14 10:02:33;;;;;;;2.28;2.08;;;6.50;45.90;;;;;;5093973;28;20192;-47
2024/01/14 10:04:59;;;;;;;3.50;3.20;;;6.40;46.00;;;;;;5094328;28;20179;-49
2024/01/14 10:07:26;;;;;;;0.90;0.40;;;6.50;45.80;;;;;;5094110;28;20169;-49
2024/01/14 10:09:52;;;;;;;7.53;1.60;;;6.70;45.30;;;;;;5094018;28;20192;-42
2024/01/14 10:12:18;;;;;;;1.73;1.63;;;6.80;45.10;;;;;;5093954;28;20275;-50
2024/01/14 10:14:44;;;;;;;13.48;2.08;;;6.90;44.50;;;;;;5093882;28;20744;-43
2024/01/14 10:17:14;;;;;;;1.35;0.80;;;7.00;44.50;;;;;;5093866;28;20188;-42
2024/01/14 10:19:41;;;;;;;1.10;0.73;;;7.00;43.90;;;;;;5093596;28;20279;-48
2024/01/14 10:22:07;;;;;;;1.00;0.80;;;7.00;44.10;;;;;;5093644;28;20172;-44
2024/01/14 10:24:33;;;;;;;2.88;2.28;;;7.00;44.20;;;;;;5093884;28;20173;-45
2024/01/14 10:26:59;;;;;;;2.42;1.25;;;7.00;43.80;;;;;;5093845;28;20268;-49
2024/01/14 10:29:25;;;;;;;1.67;1.43;;;6.90;44.10;;;;;;5093683;28;20204;-49
2024/01/14 10:31:51;;;;;;;1.93;1.77;;;6.90;44.30;;;;;;5093500;28;20172;-43
2024/01/14 10:34:18;;;;;;;3.13;1.52;;;6.90;43.50;;;;;;5093906;28;20173;-45
2024/01/14 10:36:45;;;;;;;1.00;0.68;;;7.00;43.90;;;;;;5093548;28;20192;-50
2024/01/14 10:39:12;;;;;;;2.45;0.90;;;7.10;44.10;;;;;;5093843;28;20349;-46
2024/01/14 10:41:38;;;;;;;1.10;0.70;;;7.10;43.90;;;;;;5093148;28;20299;-44
2024/01/14 10:44:04;;;;;;;3.53;2.80;;;7.10;44.00;;;;;;5093224;28;20192;-44
2024/01/14 10:46:32;;;;;;;1.37;1.23;;;7.10;43.70;;;;;;5093341;28;20195;-51
2024/01/14 10:49:08;;;;;;;2.47;0.88;;;7.10;43.40;;;;;;5093349;28;20403;-44
2024/01/14 10:51:40;;;;;;;1.20;0.75;;;7.10;44.20;;;;;;5093086;28;20200;-47
2024/01/14 10:54:22;;;;;;;2.72;1.08;;;7.20;43.80;;;;;;5093123;28;20177;-45
2024/01/14 10:57:00;;;;;;;0.98;0.65;;;7.00;43.90;;;;;;5093116;28;20184;-43
2024/01/14 10:59:28;;;;;;;1.70;1.30;;;6.90;44.60;;;;;;5093239;28;20183;-51
2024/01/14 11:01:57;;;;;;;0.90;0.73;;;6.90;44.80;;;;;;5093189;28;20184;-52
2024/01/14 11:04:24;;;;;;;2.00;0.95;;;6.80;44.70;;;;;;5093231;28;20215;-43
2024/01/14 11:06:55;;;;;;;1.20;0.55;;;7.00;44.50;;;;;;5092952;28;20844;-43
2024/01/14 11:09:21;;;;;;;2.05;1.10;;;7.10;43.90;;;;;;5092753;28;20176;-47
2024/01/14 11:12:14;;;;;;;1.48;0.73;;;7.10;44.30;;;;;;5092937;28;20173;-50
2024/01/14 11:14:53;;;;;;;3.35;0.75;;;7.20;43.70;;;;;;5092463;28;20184;-43
2024/01/14 11:17:45;;;;;;;0.90;0.55;;;6.90;44.30;;;;;;5092879;28;20183;-43
2024/01/14 11:20:16;;;;;;;1.35;0.88;;;6.90;44.10;;;;;;5092535;28;20188;-43
2024/01/14 11:22:43;;;;;;;7.53;2.67;;;6.80;44.70;;;;;;5092599;28;20196;-46
2024/01/14 11:25:16;;;;;;;1.55;0.63;;;6.80;44.90;;;;;;5092579;28;20183;-41
2024/01/14 11:27:43;;;;;;;0.95;0.52;;;6.80;44.70;;;;;;5092639;28;20183;-44
2024/01/14 11:30:11;;;;;;;1.02;0.65;;;6.80;44.40;;;;;;5092278;28;20676;-44
2024/01/14 11:32:37;;;;;;;1.00;0.60;;;6.50;45.10;;;;;;5092689;28;20324;-44
2024/01/14 11:35:03;;;;;;;3.60;1.30;;;6.60;45.10;;;;;;5092319;28;20187;-46
2024/01/14 11:37:29;;;;;;;5.22;1.83;;;6.70;44.50;;;;;;5092555;28;20184;-43
2024/01/14 11:40:11;;;;;;;1.50;1.10;;;6.70;44.60;;;;;;5092034;28;20578;-45
2024/01/14 11:42:45;;;;;;;2.13;1.23;;;6.80;44.40;;;;;;5092186;28;20287;-44
2024/01/14 11:45:23;;;;;;;0.80;0.40;;;6.70;44.60;;;;;;5092615;28;20297;-45
2024/01/14 11:48:00;;;;;;;1.67;1.58;;;6.70;44.50;;;;;;5092409;28;20228;-47
2024/01/14 11:50:27;;;;;;;1.40;0.88;;;6.70;44.70;;;;;;5091973;28;20231;-44
2024/01/14 11:52:54;;;;;;;2.08;1.48;;;7.00;44.20;;;;;;5092188;28;20173;-53
2024/01/14 11:55:31;;;;;;;4.72;0.98;;;7.10;43.70;;;;;;5092080;28;20249;-43
2024/01/14 11:58:11;;;;;;;2.00;1.02;;;7.10;43.30;;;;;;5092278;28;20184;-44
2024/01/14 12:00:40;;;;;;;4.68;3.95;;;7.10;43.40;;;;;;5092021;28;20245;-49
2024/01/14 12:03:15;;;;;;;7.57;1.42;;;7.20;43.10;;;;;;5092109;28;20279;-42
2024/01/14 12:05:42;;;;;;;3.28;1.48;;;7.30;42.90;;;;;;5091463;28;20168;-48
2024/01/14 12:08:08;;;;;;;0.90;0.45;;;7.30;43.10;;;;;;5092225;28;20176;-46
2024/01/14 12:10:35;;;;;;;4.60;0.73;;;7.40;42.50;;;;;;5091769;28;20204;-45
2024/01/14 12:13:03;;;;;;;3.85;1.45;;;7.30;43.00;;;;;;5092038;28;20566;-44
2024/01/14 12:15:29;;;;;;;3.15;1.20;;;7.40;42.60;;;;;;5091960;28;20183;-47
2024/01/14 12:17:59;;;;;;;1.45;0.65;;;7.20;42.60;;;;;;5091908;28;20180;-50
2024/01/14 12:20:27;;;;;;;3.40;0.90;;;7.10;42.90;;;;;;5091798;28;20291;-50
2024/01/14 12:22:58;;;;;;;0.90;0.43;;;7.20;42.80;;;;;;5092039;28;20204;-44
2024/01/14 12:25:25;;;;;;;1.80;0.60;;;7.00;43.20;;;;;;5092013;28;20572;-45
2024/01/14 12:27:50;;;;;;;0.90;0.47;;;6.70;43.90;;;;;;5091911;28;20241;-45
2024/01/14 12:30:23;;;;;;;1.10;0.73;;;6.60;44.50;;;;;;5091641;28;20224;-47
2024/01/14 12:32:49;;;;;;;1.40;1.10;;;6.60;44.70;;;;;;5090572;28;20245;-42
2024/01/14 12:35:15;;;;;;;1.80;1.55;;;6.70;44.40;;;;;;5091759;28;20196;-47
2024/01/14 12:37:41;;;;;;;0.90;0.60;;;6.80;44.20;;;;;;5091757;28;20251;-43
2024/01/14 12:40:07;;;;;;;1.47;0.77;;;6.90;44.00;;;;;;5091650;28;20204;-46
2024/01/14 12:42:33;;;;;;;1.23;1.13;;;7.00;43.90;;;;;;5091650;28;20993;-49
2024/01/14 12:45:03;;;;;;;1.30;0.80;;;6.90;43.90;;;;;;5091719;28;20196;-43
2024/01/14 12:47:29;;;;;;;1.05;0.70;;;7.10;43.60;;;;;;5091771;28;20202;-43
2024/01/14 12:49:54;;;;;;;4.70;0.63;;;7.20;42.90;;;;;;5091670;28;20197;-46
2024/01/14 12:52:20;;;;;;;2.27;2.07;;;7.10;43.00;;;;;;5091661;28;20203;-48
2024/01/14 12:54:50;;;;;;;1.00;0.70;;;7.20;42.60;;;;;;5091629;28;20624;-43
2024/01/14 12:57:17;;;;;;;0.80;0.30;;;7.00;43.00;;;;;;5091614;28;20276;-50